createdAt,value
2022-10-25T00:01:26.283Z,12.80
2022-10-25T00:09:01.706Z,12.73
2022-10-25T00:16:37.537Z,12.66
2022-10-25T00:24:14.401Z,12.59
2022-10-25T00:31:48.968Z,12.54
2022-10-25T00:39:23.955Z,12.46
2022-10-25T00:46:57.623Z,12.36
2022-10-25T00:54:37.571Z,12.32
2022-10-25T01:02:13.411Z,12.32
2022-10-25T01:09:48.983Z,12.36
2022-10-25T01:17:30.317Z,12.39
2022-10-25T01:25:25.450Z,12.45
2022-10-25T01:33:10.681Z,12.51
2022-10-25T01:40:53.404Z,12.54
2022-10-25T01:48:33.153Z,12.61
2022-10-25T01:56:07.683Z,12.62
2022-10-25T02:03:50.429Z,12.68
2022-10-25T02:11:26.181Z,12.71
2022-10-25T02:19:04.789Z,12.73
2022-10-25T02:26:41.232Z,12.75
2022-10-25T02:34:16.629Z,12.77
2022-10-25T02:41:50.232Z,12.79
2022-10-25T02:49:25.541Z,12.81
2022-10-25T02:56:59.216Z,12.83
2022-10-25T03:04:35.237Z,12.85
2022-10-25T03:12:08.897Z,12.88
2022-10-25T03:19:43.898Z,12.91
2022-10-25T03:27:18.018Z,12.96
2022-10-25T03:34:52.985Z,13.00
2022-10-25T03:42:27.032Z,13.02
2022-10-25T03:50:02.192Z,13.04
2022-10-25T03:57:35.795Z,13.05
2022-10-25T04:05:11.068Z,13.06
2022-10-25T04:12:44.737Z,13.09
2022-10-25T04:20:20.666Z,13.12
2022-10-25T04:27:54.499Z,13.12
2022-10-25T04:35:29.472Z,13.13
2022-10-25T04:43:03.194Z,13.12
2022-10-25T04:50:38.515Z,13.10
2022-10-25T04:58:12.263Z,13.07
2022-10-25T05:05:47.380Z,13.05
2022-10-25T05:13:20.987Z,13.01
2022-10-25T05:20:56.755Z,13.00
2022-10-25T05:28:30.421Z,12.96
2022-10-25T05:36:06.004Z,12.95
2022-10-25T05:43:40.061Z,12.96
2022-10-25T05:59:12.889Z,12.97
2022-10-25T06:06:52.093Z,13.01
2022-10-25T06:14:25.697Z,13.04
2022-10-25T06:22:01.935Z,13.05
2022-10-25T06:29:35.557Z,13.07
2022-10-25T06:37:10.970Z,13.14
2022-10-25T06:44:44.872Z,13.20
2022-10-25T06:52:20.166Z,13.28
2022-10-25T06:59:53.903Z,13.35
2022-10-25T07:07:28.938Z,13.41
2022-10-25T07:15:02.446Z,13.42
2022-10-25T07:22:38.415Z,13.48
2022-10-25T07:30:12.958Z,13.50
2022-10-25T07:37:48.328Z,13.50
2022-10-25T07:45:24.404Z,13.61
2022-10-25T07:53:01.715Z,13.71
2022-10-25T08:00:36.455Z,13.79
2022-10-25T08:08:11.900Z,13.83
2022-10-25T08:15:51.079Z,13.87
2022-10-25T08:23:26.327Z,13.82
2022-10-25T08:31:01.361Z,13.80
2022-10-25T08:38:36.663Z,13.79
2022-10-25T08:46:13.741Z,13.86
2022-10-25T09:01:30.842Z,14.41
2022-10-25T09:09:17.604Z,14.42
2022-10-25T09:16:52.802Z,14.48
2022-10-25T09:24:30.782Z,14.52
2022-10-25T09:32:08.781Z,14.54
2022-10-25T09:39:47.229Z,14.63
2022-10-25T09:47:31.004Z,14.78
2022-10-25T09:55:25.189Z,14.84
2022-10-25T10:02:58.935Z,14.93
2022-10-25T10:10:36.595Z,14.95
2022-10-25T10:18:24.953Z,14.98
2022-10-25T10:26:02.856Z,14.93
2022-10-25T10:33:38.362Z,15.00
2022-10-25T10:41:23.525Z,15.07
2022-10-25T10:48:59.168Z,15.13
2022-10-25T10:56:34.366Z,15.23
2022-10-25T11:04:08.036Z,15.32
2022-10-25T11:11:43.707Z,15.47
2022-10-25T11:19:40.720Z,15.64
2022-10-25T11:27:25.096Z,15.76
2022-10-25T11:35:11.092Z,16.05
2022-10-25T11:42:59.318Z,16.14
2022-10-25T11:50:41.679Z,16.12
2022-10-25T11:58:31.239Z,16.04
2022-10-25T12:06:16.823Z,16.01
2022-10-25T12:13:54.706Z,16.11
2022-10-25T12:21:33.383Z,16.25
2022-10-25T12:29:15.472Z,16.26
2022-10-25T12:36:53.934Z,16.22
2022-10-25T12:44:48.326Z,16.28
2022-10-25T12:52:32.311Z,16.38
2022-10-25T13:00:13.536Z,16.35
2022-10-25T13:07:49.430Z,16.25
2022-10-25T13:15:25.030Z,16.19
2022-10-25T13:22:58.816Z,16.14
2022-10-25T13:30:33.943Z,15.87
2022-10-25T13:38:09.475Z,15.53
2022-10-25T13:45:47.593Z,15.42
2022-10-25T13:53:24.217Z,15.29
2022-10-25T14:01:37.917Z,15.24
2022-10-25T14:09:24.520Z,15.15
2022-10-25T14:17:10.321Z,15.11
2022-10-25T14:24:48.001Z,15.02
2022-10-25T14:32:23.713Z,14.92
2022-10-25T14:39:57.898Z,14.89
2022-10-25T14:47:36.339Z,14.87
2022-10-25T14:55:19.861Z,14.80
2022-10-25T15:03:01.379Z,14.76
2022-10-25T15:10:44.430Z,14.70
2022-10-25T15:18:40.408Z,14.68
2022-10-25T15:26:28.466Z,14.67
2022-10-25T15:34:05.775Z,14.64
2022-10-25T15:41:39.790Z,14.57
2022-10-25T15:49:14.861Z,14.44
2022-10-25T15:56:48.910Z,14.34
2022-10-25T16:04:23.872Z,14.25
2022-10-25T16:11:57.458Z,14.08
2022-10-25T16:19:32.559Z,13.99
2022-10-25T16:27:06.253Z,13.86
2022-10-25T16:34:46.145Z,13.74
2022-10-25T16:42:31.449Z,13.64
2022-10-25T16:50:07.800Z,13.50
2022-10-25T16:57:41.367Z,13.39
2022-10-25T17:05:20.256Z,13.31
2022-10-25T17:13:01.506Z,13.17
2022-10-25T17:20:37.455Z,13.04
2022-10-25T17:28:11.301Z,12.97
2022-10-25T17:35:46.372Z,12.84
2022-10-25T17:43:21.246Z,12.72
2022-10-25T17:51:01.751Z,12.62
2022-10-25T17:58:35.531Z,12.52
2022-10-25T18:06:17.308Z,12.44
2022-10-25T18:13:53.305Z,12.32
2022-10-25T18:21:29.404Z,12.20
2022-10-25T18:29:08.464Z,12.11
2022-10-25T18:36:43.864Z,11.99
2022-10-25T18:44:18.229Z,11.89
2022-10-25T18:51:54.118Z,11.77
2022-10-25T18:59:27.950Z,11.63
2022-10-25T19:07:03.059Z,11.58
2022-10-25T19:14:36.678Z,11.53
2022-10-25T19:22:17.048Z,11.43
2022-10-25T19:29:51.147Z,11.35
2022-10-25T19:37:29.998Z,11.26
2022-10-25T19:45:09.403Z,11.18
2022-10-25T19:52:51.524Z,11.10
2022-10-25T20:00:36.153Z,10.99
2022-10-25T20:08:12.710Z,10.96
2022-10-25T20:15:52.447Z,10.86
2022-10-25T20:23:28.482Z,10.80
2022-10-25T20:31:10.171Z,10.73
2022-10-25T20:38:48.736Z,10.69
2022-10-25T20:46:25.767Z,10.60
